Nearby METAR Reports

 

KEQY - Monroe, North Carolina, USA
Distance from station: S 11mi, 18km
Updated: Wed, 08/05/2015 7:53am EDT
Clear
Clear
 Wind from calm
Wind: Calm
Temperature: 75°F , 24°C
Dew Point: 66°F , 19°C
Humidity: 74%
Barometer: 30.03 inHg , 1016.9 hPa
Clouds: Clear
Visibility: 10 miles , 16 km
2015/08/05 11:53 KEQY 051153Z AUTO 00000KT 10SM CLR 24/19 A3003 RMK AO2 SLP165 T02390194 10267 20217 53013
KJQF - Concord Reg Arpt, North Carolina, USA
Distance from station: NNW 16mi, 25km
Updated: Wed, 08/05/2015 7:50am EDT
Clear
Clear
 Wind from N
Wind: N 3 mph , 6 km/h
Temperature: 73°F , 23°C
Dew Point: 68°F , 20°C
Humidity: 83%
Barometer: 30.07 inHg , 1018.3 hPa
Clouds: Clear
Visibility: 10 miles , 16 km
2015/08/05 11:50 KJQF 051150Z 01003KT 10SM CLR 23/20 A3007
 
KCLT - Charlotte, North Carolina, USA
Distance from station: W 20mi, 33km
Updated: Wed, 08/05/2015 7:52am EDT
Mostly cloudy
Mostly cloudy
 Wind from calm
Wind: Calm
Temperature: 75°F , 24°C
Dew Point: 66°F , 19°C
Humidity: 74%
Barometer: 30.04 inHg , 1017.3 hPa
Clouds: Mostly cloudy
Visibility: 10 miles , 16 km
Cloud details: Mostly cloudy 25000 ft
2015/08/05 11:52 KCLT 051152Z 00000KT 10SM BKN250 24/19 A3004 RMK AO2 SLP162 T02440194 10250 20206 53012
KUZA - Rock Hill, South Carolina, USA
Distance from station: WSW 29mi, 47km
Updated: Wed, 08/05/2015 7:54am EDT
Clear
Clear
 Wind from SSW
Wind: SSW 5 mph , 7 km/h
Temperature: 73°F , 23°C
Dew Point: 70°F , 21°C
Humidity: 89%
Barometer: 30.05 inHg , 1017.6 hPa
Clouds: Clear
Visibility: 7 miles , 11 km
2015/08/05 11:54 KUZA 051154Z AUTO 21004KT 7SM CLR 23/21 A3005 RMK AO2 SLP159 T02280206 10244 20206 53012
 
KVUJ - Albemarle Stanly, North Carolina, USA
Distance from station: NE 30mi, 48km
Updated: Wed, 08/05/2015 8:15am EDT
Clear
Clear
 Wind from calm
Wind: Calm
Temperature: 75°F , 24°C
Dew Point: 73°F , 23°C
Humidity: 94%
Barometer: 30.07 inHg , 1018.3 hPa
Clouds: Clear
Visibility: 10 miles , 16 km
2015/08/05 12:15 KVUJ 051215Z AUTO 00000KT 10SM CLR 24/23 A3007 RMK AO2
KAFP - Wadesboro/Anson, North Carolina, USA
Distance from station: ESE 31mi, 50km
Updated: Wed, 08/05/2015 8:15am EDT
Clear
Clear
 Wind from calm
Wind: Calm
Temperature: 77°F , 25°C
Dew Point: 70°F , 21°C
Humidity: 79%
Barometer: 30.02 inHg , 1016.6 hPa
Clouds: Clear
Visibility: 10 miles , 16 km
2015/08/05 12:15 KAFP 051215Z AUTO 00000KT 10SM CLR 25/21 A3002 RMK AO2 T02500211
 
KAKH - Gastonia, North Carolina, USA
Distance from station: W 31mi, 51km
Updated: Wed, 08/05/2015 7:54am EDT
Clear
Clear
 Wind from calm
Wind: Calm
Temperature: 73°F , 23°C
Dew Point: 66°F , 19°C
Humidity: 78%
Barometer: 30.05 inHg , 1017.6 hPa
Clouds: Clear
Visibility: 10 miles , 16 km
2015/08/05 11:54 KAKH 051154Z AUTO 00000KT 10SM CLR 23/19 A3005 RMK AO2 SLP165 T02330194 10239 20200 53013
KRUQ - Salisbury Rowan, North Carolina, USA
Distance from station: N 33mi, 53km
Updated: Wed, 08/05/2015 8:15am EDT
Clear
Clear
 Wind from calm
Wind: Calm
Temperature: 72°F , 22°C
Dew Point: 70°F , 21°C
Humidity: 94%
Barometer: 30.06 inHg , 1017.9 hPa
Clouds: Clear
Visibility: 10 miles , 16 km
2015/08/05 12:15 KRUQ 051215Z AUTO 00000KT 10SM CLR 22/21 A3006 RMK AO2 T02150213
 
KLKR - Lancaster, South Carolina, USA
Distance from station: SSW 35mi, 57km
Updated: Wed, 08/05/2015 8:15am EDT
Clear
Clear
 Wind from calm
Wind: Calm
Temperature: 75°F , 24°C
Dew Point: 75°F , 24°C
Humidity: 100%
Barometer: 30.04 inHg , 1017.3 hPa
Clouds: Clear
Visibility: 10 miles , 16 km
2015/08/05 12:15 KLKR 051215Z AUTO 00000KT 10SM CLR 24/24 A3004 RMK AO2
KIPJ - Lincolnton, North Carolina, USA
Distance from station: WNW 39mi, 62km
Updated: Wed, 08/05/2015 8:15am EDT
Clear
Clear
 Wind from calm
Wind: Calm
Temperature: 72°F , 22°C
Dew Point: 66°F , 19°C
Humidity: 83%
Barometer: 30.06 inHg , 1017.9 hPa
Clouds: Clear
Visibility: 10 miles , 16 km
2015/08/05 12:15 KIPJ 051215Z AUTO 00000KT 10SM CLR 22/19 A3006 RMK AO2 T02160188
 
KDCM - Chester Catawba, South Carolina, USA
Distance from station: SW 44mi, 71km
Updated: Wed, 08/05/2015 8:15am EDT
Clear
Clear
 Wind from calm
Wind: Calm
Temperature: 77°F , 25°C
Dew Point: 68°F , 20°C
Humidity: 74%
Barometer: 30.06 inHg , 1017.9 hPa
Clouds: Clear
Visibility: 7 miles , 11 km
2015/08/05 12:15 KDCM 051215Z AUTO 00000KT 7SM CLR 25/20 A3006 RMK AO2
KSVH - Statesville, North Carolina, USA
Distance from station: NNW 44mi, 71km
Updated: Wed, 08/05/2015 8:15am EDT
Clear
Clear
 Wind from calm
Wind: Calm
Temperature: 70°F , 21°C
Dew Point: 66°F , 19°C
Humidity: 88%
Barometer: 30.06 inHg , 1017.9 hPa
Clouds: Clear
Visibility: 10 miles , 16 km
2015/08/05 12:15 KSVH 051215Z AUTO 00000KT 10SM CLR 21/19 A3006 RMK AO2 T02090187
 
KEXX - Davidson Cty Ap, North Carolina, USA
Distance from station: NNE 45mi, 72km
Updated: Wed, 08/05/2015 8:15am EDT
Clear
Clear
 Wind from calm
Wind: Calm
Temperature: 72°F , 22°C
Dew Point: 70°F , 21°C
Humidity: 94%
Barometer: 30.04 inHg , 1017.3 hPa
Clouds: Clear
Visibility: 10 miles , 16 km
2015/08/05 12:15 KEXX 051215Z AUTO 00000KT 10SM CLR 22/21 A3004 RMK AO2 T02220205
KCQW - Cheraw, South Carolina, USA
Distance from station: SE 49mi, 78km
Updated: Wed, 08/05/2015 8:15am EDT
Clear
Clear
 Wind from calm
Wind: Calm
Temperature: 77°F , 25°C
Dew Point: 68°F , 20°C
Humidity: 74%
Barometer: 30.01 inHg , 1016.3 hPa
Clouds: Clear
Visibility: 8 miles , 13 km
2015/08/05 12:15 KCQW 051215Z AUTO 00000KT 8SM CLR 25/20 A3001 RMK AO2